sensor_id;sensor_type;location;lat;lon;timestamp;noise_LAeq;noise_LA_min;noise_LA_max;noise_LA01;noise_LA95
70245;Laerm;57637;49.272;8.590;2023-02-01T00:02:23;40.30;34.41;47.93;;
70245;Laerm;57637;49.272;8.590;2023-02-01T00:04:48;38.99;33.53;49.02;;
70245;Laerm;57637;49.272;8.590;2023-02-01T00:07:14;39.14;34.36;52.96;;
70245;Laerm;57637;49.272;8.590;2023-02-01T00:09:39;38.53;32.82;50.61;;
70245;Laerm;57637;49.272;8.590;2023-02-01T00:12:05;38.09;32.79;47.77;;
70245;Laerm;57637;49.272;8.590;2023-02-01T00:14:30;36.69;32.17;45.46;;
70245;Laerm;57637;49.272;8.590;2023-02-01T00:16:57;35.45;32.19;47.80;;
70245;Laerm;57637;49.272;8.590;2023-02-01T00:19:22;35.85;31.99;53.00;;
70245;Laerm;57637;49.272;8.590;2023-02-01T00:21:48;36.97;32.92;44.38;;
70245;Laerm;57637;49.272;8.590;2023-02-01T00:24:13;39.44;34.15;50.03;;
70245;Laerm;57637;49.272;8.590;2023-02-01T00:26:41;36.90;33.09;49.30;;
70245;Laerm;57637;49.272;8.590;2023-02-01T00:29:12;39.08;32.72;57.13;;
70245;Laerm;57637;49.272;8.590;2023-02-01T00:31:38;39.61;33.12;50.14;;
70245;Laerm;57637;49.272;8.590;2023-02-01T00:34:04;39.47;32.95;56.98;;
70245;Laerm;57637;49.272;8.590;2023-02-01T00:36:30;36.64;32.47;44.10;;
70245;Laerm;57637;49.272;8.590;2023-02-01T00:38:55;40.51;32.29;51.09;;
70245;Laerm;57637;49.272;8.590;2023-02-01T00:41:21;39.34;33.62;48.18;;
70245;Laerm;57637;49.272;8.590;2023-02-01T00:43:48;36.26;32.18;42.45;;
70245;Laerm;57637;49.272;8.590;2023-02-01T00:46:14;38.70;32.13;49.87;;
70245;Laerm;57637;49.272;8.590;2023-02-01T00:48:40;38.84;32.81;51.35;;
70245;Laerm;57637;49.272;8.590;2023-02-01T00:51:08;38.35;32.66;53.38;;
70245;Laerm;57637;49.272;8.590;2023-02-01T00:53:35;37.67;33.19;46.94;;
70245;Laerm;57637;49.272;8.590;2023-02-01T00:56:00;38.28;33.40;49.10;;
70245;Laerm;57637;49.272;8.590;2023-02-01T00:58:26;40.72;33.98;54.79;;
70245;Laerm;57637;49.272;8.590;2023-02-01T01:03:27;42.48;34.36;56.21;;
70245;Laerm;57637;49.272;8.590;2023-02-01T01:05:56;38.19;33.14;56.43;;
70245;Laerm;57637;49.272;8.590;2023-02-01T01:08:22;38.20;33.92;49.14;;
70245;Laerm;57637;49.272;8.590;2023-02-01T01:10:47;37.90;33.17;49.64;;
70245;Laerm;57637;49.272;8.590;2023-02-01T01:13:14;38.14;33.88;46.60;;
70245;Laerm;57637;49.272;8.590;2023-02-01T01:15:40;38.14;32.38;50.06;;
70245;Laerm;57637;49.272;8.590;2023-02-01T01:18:06;39.50;33.48;47.94;;
70245;Laerm;57637;49.272;8.590;2023-02-01T01:20:34;39.12;32.81;54.85;;
70245;Laerm;57637;49.272;8.590;2023-02-01T01:22:59;37.02;32.27;46.75;;
70245;Laerm;57637;49.272;8.590;2023-02-01T01:25:25;37.16;32.32;53.78;;
70245;Laerm;57637;49.272;8.590;2023-02-01T01:27:50;41.52;32.26;60.13;;
70245;Laerm;57637;49.272;8.590;2023-02-01T01:30:16;35.31;32.48;48.29;;
70245;Laerm;57637;49.272;8.590;2023-02-01T01:32:41;37.26;33.53;44.61;;
70245;Laerm;57637;49.272;8.590;2023-02-01T01:35:07;36.00;32.16;41.43;;
70245;Laerm;57637;49.272;8.590;2023-02-01T01:37:32;35.57;31.90;45.00;;
70245;Laerm;57637;49.272;8.590;2023-02-01T01:39:58;36.52;31.62;44.44;;
70245;Laerm;57637;49.272;8.590;2023-02-01T01:42:23;36.64;31.99;53.10;;
70245;Laerm;57637;49.272;8.590;2023-02-01T01:45:05;39.48;32.27;54.59;;
70245;Laerm;57637;49.272;8.590;2023-02-01T01:47:39;37.23;32.11;62.90;;
70245;Laerm;57637;49.272;8.590;2023-02-01T01:50:08;37.43;33.17;49.96;;
70245;Laerm;57637;49.272;8.590;2023-02-01T01:52:36;38.18;33.50;46.35;;
70245;Laerm;57637;49.272;8.590;2023-02-01T01:55:03;36.45;32.75;51.91;;
70245;Laerm;57637;49.272;8.590;2023-02-01T01:57:38;37.10;32.30;44.65;;
70245;Laerm;57637;49.272;8.590;2023-02-01T02:00:09;35.67;31.56;45.93;;
70245;Laerm;57637;49.272;8.590;2023-02-01T02:02:36;35.60;31.69;47.39;;
70245;Laerm;57637;49.272;8.590;2023-02-01T02:05:02;36.00;32.10;44.20;;
70245;Laerm;57637;49.272;8.590;2023-02-01T02:07:33;37.19;33.14;45.66;;
70245;Laerm;57637;49.272;8.590;2023-02-01T02:10:03;36.71;32.75;43.98;;
70245;Laerm;57637;49.272;8.590;2023-02-01T02:12:31;37.63;32.56;51.23;;
70245;Laerm;57637;49.272;8.590;2023-02-01T02:14:57;35.85;31.38;51.16;;
70245;Laerm;57637;49.272;8.590;2023-02-01T02:17:52;35.70;31.85;44.08;;
70245;Laerm;57637;49.272;8.590;2023-02-01T02:20:46;37.27;32.54;51.13;;
70245;Laerm;57637;49.272;8.590;2023-02-01T02:26:04;38.07;32.34;45.32;;
70245;Laerm;57637;49.272;8.590;2023-02-01T02:33:59;35.88;31.69;47.66;;
70245;Laerm;57637;49.272;8.590;2023-02-01T02:42:06;38.80;32.67;51.65;;
70245;Laerm;57637;49.272;8.590;2023-02-01T02:45:01;40.36;32.29;53.29;;
70245;Laerm;57637;49.272;8.590;2023-02-01T02:47:56;35.58;31.94;43.73;;
70245;Laerm;57637;49.272;8.590;2023-02-01T02:50:37;36.52;31.32;47.20;;
70245;Laerm;57637;49.272;8.590;2023-02-01T02:56:33;36.54;32.08;55.40;;
70245;Laerm;57637;49.272;8.590;2023-02-01T02:59:20;38.20;33.21;47.73;;
70245;Laerm;57637;49.272;8.590;2023-02-01T03:02:05;38.35;32.40;48.34;;
70245;Laerm;57637;49.272;8.590;2023-02-01T03:04:54;36.37;32.57;42.30;;
70245;Laerm;57637;49.272;8.590;2023-02-01T03:13:13;36.34;33.20;40.74;;
70245;Laerm;57637;49.272;8.590;2023-02-01T03:15:43;37.57;33.60;49.20;;
70245;Laerm;57637;49.272;8.590;2023-02-01T03:18:34;37.52;34.15;45.36;;
70245;Laerm;57637;49.272;8.590;2023-02-01T03:21:06;36.50;32.96;47.40;;
70245;Laerm;57637;49.272;8.590;2023-02-01T03:23:35;36.10;32.26;43.63;;
70245;Laerm;57637;49.272;8.590;2023-02-01T03:26:04;38.24;32.63;46.46;;
70245;Laerm;57637;49.272;8.590;2023-02-01T03:28:32;37.19;32.03;46.64;;
70245;Laerm;57637;49.272;8.590;2023-02-01T03:30:59;34.78;31.22;52.23;;
70245;Laerm;57637;49.272;8.590;2023-02-01T03:33:25;36.00;31.94;44.89;;
70245;Laerm;57637;49.272;8.590;2023-02-01T03:41:22;36.81;33.00;46.03;;
70245;Laerm;57637;49.272;8.590;2023-02-01T03:43:58;36.38;33.32;53.48;;
70245;Laerm;57637;49.272;8.590;2023-02-01T03:46:35;36.79;32.72;49.74;;
70245;Laerm;57637;49.272;8.590;2023-02-01T03:49:05;37.50;33.46;52.37;;
70245;Laerm;57637;49.272;8.590;2023-02-01T03:51:32;37.41;33.82;43.82;;
70245;Laerm;57637;49.272;8.590;2023-02-01T03:53:58;37.72;33.34;46.47;;
70245;Laerm;57637;49.272;8.590;2023-02-01T03:56:27;37.21;32.56;44.60;;
70245;Laerm;57637;49.272;8.590;2023-02-01T03:58:53;38.14;32.91;51.62;;
70245;Laerm;57637;49.272;8.590;2023-02-01T04:01:26;37.67;32.86;52.36;;
70245;Laerm;57637;49.272;8.590;2023-02-01T04:03:51;36.53;32.89;47.33;;
70245;Laerm;57637;49.272;8.590;2023-02-01T04:06:17;36.44;33.38;48.51;;
70245;Laerm;57637;49.272;8.590;2023-02-01T04:08:42;38.96;34.31;48.21;;
70245;Laerm;57637;49.272;8.590;2023-02-01T04:11:07;37.44;33.96;42.67;;
70245;Laerm;57637;49.272;8.590;2023-02-01T04:13:33;37.86;34.08;49.06;;
70245;Laerm;57637;49.272;8.590;2023-02-01T04:15:58;38.46;35.06;49.22;;
70245;Laerm;57637;49.272;8.590;2023-02-01T04:18:23;39.37;35.61;46.24;;
70245;Laerm;57637;49.272;8.590;2023-02-01T04:20:49;38.89;34.37;46.16;;
70245;Laerm;57637;49.272;8.590;2023-02-01T04:23:14;38.83;34.67;45.99;;
70245;Laerm;57637;49.272;8.590;2023-02-01T04:25:40;39.17;34.91;44.63;;
70245;Laerm;57637;49.272;8.590;2023-02-01T04:28:06;40.52;35.46;49.76;;
70245;Laerm;57637;49.272;8.590;2023-02-01T04:30:32;42.19;36.31;52.34;;
70245;Laerm;57637;49.272;8.590;2023-02-01T04:32:57;39.49;35.88;47.85;;
70245;Laerm;57637;49.272;8.590;2023-02-01T04:35:23;39.77;36.06;51.58;;
70245;Laerm;57637;49.272;8.590;2023-02-01T04:37:48;39.53;35.30;47.08;;
70245;Laerm;57637;49.272;8.590;2023-02-01T04:40:14;41.12;35.89;58.73;;
70245;Laerm;57637;49.272;8.590;2023-02-01T04:42:39;39.79;35.72;51.96;;
70245;Laerm;57637;49.272;8.590;2023-02-01T04:45:05;40.38;35.70;49.48;;
70245;Laerm;57637;49.272;8.590;2023-02-01T04:47:30;39.70;35.32;47.43;;
70245;Laerm;57637;49.272;8.590;2023-02-01T04:49:56;40.20;34.77;53.52;;
70245;Laerm;57637;49.272;8.590;2023-02-01T04:52:21;38.62;34.71;45.34;;
70245;Laerm;57637;49.272;8.590;2023-02-01T04:54:46;37.91;34.54;45.08;;
70245;Laerm;57637;49.272;8.590;2023-02-01T04:57:12;38.46;34.55;49.76;;
70245;Laerm;57637;49.272;8.590;2023-02-01T04:59:39;42.75;35.88;53.12;;
70245;Laerm;57637;49.272;8.590;2023-02-01T05:02:05;38.33;34.70;44.94;;
70245;Laerm;57637;49.272;8.590;2023-02-01T05:04:30;39.58;33.90;50.65;;
70245;Laerm;57637;49.272;8.590;2023-02-01T05:06:55;42.36;35.73;54.01;;
70245;Laerm;57637;49.272;8.590;2023-02-01T05:09:21;39.68;35.08;58.90;;
70245;Laerm;57637;49.272;8.590;2023-02-01T05:11:47;42.55;35.48;64.52;;
70245;Laerm;57637;49.272;8.590;2023-02-01T05:14:31;40.47;35.49;58.00;;
70245;Laerm;57637;49.272;8.590;2023-02-01T05:16:56;42.11;35.42;69.50;;
70245;Laerm;57637;49.272;8.590;2023-02-01T05:19:21;41.07;36.42;57.47;;
70245;Laerm;57637;49.272;8.590;2023-02-01T05:21:47;48.85;36.39;78.33;;
70245;Laerm;57637;49.272;8.590;2023-02-01T05:24:12;41.16;36.64;54.91;;
70245;Laerm;57637;49.272;8.590;2023-02-01T05:26:42;42.78;36.70;69.29;;
70245;Laerm;57637;49.272;8.590;2023-02-01T05:29:08;41.87;37.78;54.41;;
70245;Laerm;57637;49.272;8.590;2023-02-01T05:31:34;41.10;37.21;53.46;;
70245;Laerm;57637;49.272;8.590;2023-02-01T05:33:59;40.97;37.42;48.91;;
70245;Laerm;57637;49.272;8.590;2023-02-01T05:36:25;40.87;36.77;60.50;;
70245;Laerm;57637;49.272;8.590;2023-02-01T05:38:50;42.36;38.05;50.31;;
70245;Laerm;57637;49.272;8.590;2023-02-01T05:41:16;41.91;37.59;53.63;;
70245;Laerm;57637;49.272;8.590;2023-02-01T05:43:41;41.85;38.22;51.74;;
70245;Laerm;57637;49.272;8.590;2023-02-01T05:46:06;42.02;38.04;46.89;;
70245;Laerm;57637;49.272;8.590;2023-02-01T05:48:32;41.85;37.38;54.89;;
70245;Laerm;57637;49.272;8.590;2023-02-01T05:50:57;42.23;39.11;57.61;;
70245;Laerm;57637;49.272;8.590;2023-02-01T05:53:23;42.16;38.27;65.45;;
70245;Laerm;57637;49.272;8.590;2023-02-01T05:55:48;41.96;38.08;57.47;;
70245;Laerm;57637;49.272;8.590;2023-02-01T05:58:13;42.25;39.26;55.78;;
70245;Laerm;57637;49.272;8.590;2023-02-01T06:00:39;41.83;37.64;55.94;;
70245;Laerm;57637;49.272;8.590;2023-02-01T06:03:05;44.02;37.64;59.42;;
70245;Laerm;57637;49.272;8.590;2023-02-01T06:05:30;43.14;37.00;64.04;;
70245;Laerm;57637;49.272;8.590;2023-02-01T06:07:56;41.40;36.52;52.07;;
70245;Laerm;57637;49.272;8.590;2023-02-01T06:10:21;42.21;37.90;53.30;;
70245;Laerm;57637;49.272;8.590;2023-02-01T06:12:47;41.80;38.11;48.39;;
70245;Laerm;57637;49.272;8.590;2023-02-01T06:15:13;41.87;37.82;51.21;;
70245;Laerm;57637;49.272;8.590;2023-02-01T06:17:41;43.63;39.38;59.53;;
70245;Laerm;57637;49.272;8.590;2023-02-01T06:20:07;41.84;38.49;51.87;;
70245;Laerm;57637;49.272;8.590;2023-02-01T06:22:33;41.83;37.86;50.72;;
70245;Laerm;57637;49.272;8.590;2023-02-01T06:24:58;44.36;38.81;53.45;;
70245;Laerm;57637;49.272;8.590;2023-02-01T06:27:24;44.27;38.01;62.05;;
70245;Laerm;57637;49.272;8.590;2023-02-01T06:29:50;41.41;37.74;56.48;;
70245;Laerm;57637;49.272;8.590;2023-02-01T06:32:15;41.84;38.53;47.51;;
70245;Laerm;57637;49.272;8.590;2023-02-01T06:34:42;42.16;38.72;47.50;;
70245;Laerm;57637;49.272;8.590;2023-02-01T06:37:08;42.37;38.73;55.47;;
70245;Laerm;57637;49.272;8.590;2023-02-01T06:39:36;45.84;38.81;63.36;;
70245;Laerm;57637;49.272;8.590;2023-02-01T06:42:01;41.89;38.85;47.38;;
70245;Laerm;57637;49.272;8.590;2023-02-01T06:44:27;42.19;38.19;54.22;;
70245;Laerm;57637;49.272;8.590;2023-02-01T06:46:52;42.62;38.38;56.30;;
70245;Laerm;57637;49.272;8.590;2023-02-01T06:49:17;44.22;39.07;57.23;;
70245;Laerm;57637;49.272;8.590;2023-02-01T06:51:44;43.44;39.15;62.49;;
70245;Laerm;57637;49.272;8.590;2023-02-01T06:54:10;43.45;38.80;53.89;;
70245;Laerm;57637;49.272;8.590;2023-02-01T06:56:35;43.02;39.66;55.95;;
70245;Laerm;57637;49.272;8.590;2023-02-01T06:59:04;45.00;40.57;62.33;;
70245;Laerm;57637;49.272;8.590;2023-02-01T07:01:29;50.64;39.43;70.63;;
70245;Laerm;57637;49.272;8.590;2023-02-01T07:03:54;54.38;39.90;69.21;;
70245;Laerm;57637;49.272;8.590;2023-02-01T07:06:20;53.96;40.38;68.78;;
70245;Laerm;57637;49.272;8.590;2023-02-01T07:08:46;51.56;40.45;69.90;;
70245;Laerm;57637;49.272;8.590;2023-02-01T07:11:13;46.66;39.11;70.99;;
70245;Laerm;57637;49.272;8.590;2023-02-01T07:13:39;45.68;39.17;60.37;;
70245;Laerm;57637;49.272;8.590;2023-02-01T07:16:06;44.31;38.82;66.21;;
70245;Laerm;57637;49.272;8.590;2023-02-01T07:18:32;44.70;37.65;56.69;;
70245;Laerm;57637;49.272;8.590;2023-02-01T07:20:58;42.86;38.89;51.62;;
70245;Laerm;57637;49.272;8.590;2023-02-01T07:23:25;44.44;39.33;57.01;;
70245;Laerm;57637;49.272;8.590;2023-02-01T07:25:59;41.96;38.26;60.02;;
70245;Laerm;57637;49.272;8.590;2023-02-01T07:28:25;42.43;38.49;53.70;;
70245;Laerm;57637;49.272;8.590;2023-02-01T07:30:51;41.88;37.41;62.59;;
70245;Laerm;57637;49.272;8.590;2023-02-01T07:33:21;43.83;38.46;59.23;;
70245;Laerm;57637;49.272;8.590;2023-02-01T07:35:48;46.86;38.66;60.95;;
70245;Laerm;57637;49.272;8.590;2023-02-01T07:38:14;43.01;38.21;60.09;;
70245;Laerm;57637;49.272;8.590;2023-02-01T07:40:40;45.42;38.80;58.82;;
70245;Laerm;57637;49.272;8.590;2023-02-01T07:43:05;42.47;37.75;56.96;;
70245;Laerm;57637;49.272;8.590;2023-02-01T07:45:33;42.35;38.40;58.20;;
70245;Laerm;57637;49.272;8.590;2023-02-01T07:47:59;42.04;38.82;54.37;;
70245;Laerm;57637;49.272;8.590;2023-02-01T07:50:24;42.77;38.88;59.23;;
70245;Laerm;57637;49.272;8.590;2023-02-01T07:52:49;42.78;39.36;53.43;;
70245;Laerm;57637;49.272;8.590;2023-02-01T07:55:15;46.22;41.45;58.87;;
70245;Laerm;57637;49.272;8.590;2023-02-01T07:57:40;48.30;45.24;65.18;;
70245;Laerm;57637;49.272;8.590;2023-02-01T08:00:07;47.58;43.50;61.98;;
70245;Laerm;57637;49.272;8.590;2023-02-01T08:02:51;43.11;38.70;56.39;;
70245;Laerm;57637;49.272;8.590;2023-02-01T08:05:17;41.08;37.05;57.44;;
70245;Laerm;57637;49.272;8.590;2023-02-01T08:07:42;42.02;37.67;58.30;;
70245;Laerm;57637;49.272;8.590;2023-02-01T08:10:08;41.79;37.96;55.28;;
70245;Laerm;57637;49.272;8.590;2023-02-01T08:12:37;42.87;37.13;57.26;;
70245;Laerm;57637;49.272;8.590;2023-02-01T08:15:03;43.47;37.01;56.12;;
70245;Laerm;57637;49.272;8.590;2023-02-01T08:17:29;40.83;36.86;50.80;;
70245;Laerm;57637;49.272;8.590;2023-02-01T08:19:55;41.59;36.56;57.16;;
70245;Laerm;57637;49.272;8.590;2023-02-01T08:22:21;41.75;37.45;50.46;;
70245;Laerm;57637;49.272;8.590;2023-02-01T08:24:49;40.01;36.83;51.21;;
70245;Laerm;57637;49.272;8.590;2023-02-01T08:27:15;41.05;37.64;52.57;;
70245;Laerm;57637;49.272;8.590;2023-02-01T08:29:40;41.70;37.01;61.15;;
70245;Laerm;57637;49.272;8.590;2023-02-01T08:32:05;40.82;36.87;55.99;;
70245;Laerm;57637;49.272;8.590;2023-02-01T08:34:31;43.69;36.91;58.69;;
70245;Laerm;57637;49.272;8.590;2023-02-01T08:36:56;42.56;36.67;58.07;;
70245;Laerm;57637;49.272;8.590;2023-02-01T08:39:25;43.04;36.06;56.71;;
70245;Laerm;57637;49.272;8.590;2023-02-01T08:41:51;41.70;36.81;58.36;;
70245;Laerm;57637;49.272;8.590;2023-02-01T08:44:35;42.60;36.90;66.97;;
70245;Laerm;57637;49.272;8.590;2023-02-01T08:47:02;46.20;37.37;60.73;;
70245;Laerm;57637;49.272;8.590;2023-02-01T08:49:27;40.52;35.87;52.56;;
70245;Laerm;57637;49.272;8.590;2023-02-01T08:51:53;39.83;35.85;52.61;;
70245;Laerm;57637;49.272;8.590;2023-02-01T08:54:18;42.51;36.20;59.65;;
70245;Laerm;57637;49.272;8.590;2023-02-01T08:56:43;39.86;36.14;52.53;;
70245;Laerm;57637;49.272;8.590;2023-02-01T08:59:09;38.52;35.28;52.51;;
70245;Laerm;57637;49.272;8.590;2023-02-01T09:01:34;41.62;35.09;57.43;;
70245;Laerm;57637;49.272;8.590;2023-02-01T09:03:59;50.26;38.58;64.59;;
70245;Laerm;57637;49.272;8.590;2023-02-01T09:06:25;58.78;44.23;72.58;;
70245;Laerm;57637;49.272;8.590;2023-02-01T09:08:50;60.17;43.82;74.26;;
70245;Laerm;57637;49.272;8.590;2023-02-01T09:11:17;50.45;36.52;73.67;;
70245;Laerm;57637;49.272;8.590;2023-02-01T09:13:44;42.48;37.08;53.51;;
70245;Laerm;57637;49.272;8.590;2023-02-01T09:16:13;43.09;37.99;55.30;;
70245;Laerm;57637;49.272;8.590;2023-02-01T09:18:38;45.33;37.57;63.34;;
70245;Laerm;57637;49.272;8.590;2023-02-01T09:21:05;43.93;37.22;57.40;;
70245;Laerm;57637;49.272;8.590;2023-02-01T09:23:31;40.84;36.56;57.18;;
70245;Laerm;57637;49.272;8.590;2023-02-01T09:26:05;42.38;37.19;57.70;;
70245;Laerm;57637;49.272;8.590;2023-02-01T09:28:31;40.39;35.74;54.84;;
70245;Laerm;57637;49.272;8.590;2023-02-01T09:30:57;40.72;35.77;56.39;;
70245;Laerm;57637;49.272;8.590;2023-02-01T09:33:23;41.33;35.23;54.07;;
70245;Laerm;57637;49.272;8.590;2023-02-01T09:35:54;39.79;36.23;57.38;;
70245;Laerm;57637;49.272;8.590;2023-02-01T09:38:19;41.48;36.06;54.82;;
70245;Laerm;57637;49.272;8.590;2023-02-01T09:40:46;40.66;35.82;49.88;;
70245;Laerm;57637;49.272;8.590;2023-02-01T09:46:24;42.14;36.58;56.81;;
70245;Laerm;57637;49.272;8.590;2023-02-01T09:48:54;44.02;36.88;69.07;;
70245;Laerm;57637;49.272;8.590;2023-02-01T09:51:25;46.12;37.37;66.98;;
70245;Laerm;57637;49.272;8.590;2023-02-01T09:56:56;45.83;36.91;67.83;;
70245;Laerm;57637;49.272;8.590;2023-02-01T09:59:43;43.98;36.71;64.46;;
70245;Laerm;57637;49.272;8.590;2023-02-01T10:02:17;39.58;35.21;54.99;;
70245;Laerm;57637;49.272;8.590;2023-02-01T10:04:44;40.86;36.42;49.91;;
70245;Laerm;57637;49.272;8.590;2023-02-01T10:17:46;44.01;37.53;61.50;;
70245;Laerm;57637;49.272;8.590;2023-02-01T10:25:55;43.37;36.80;56.30;;
70245;Laerm;57637;49.272;8.590;2023-02-01T10:28:22;39.84;36.06;53.18;;
70245;Laerm;57637;49.272;8.590;2023-02-01T10:30:52;39.94;35.58;51.87;;
70245;Laerm;57637;49.272;8.590;2023-02-01T10:33:47;40.97;35.82;62.79;;
70245;Laerm;57637;49.272;8.590;2023-02-01T10:38:42;41.62;37.06;57.28;;
70245;Laerm;57637;49.272;8.590;2023-02-01T10:41:14;43.20;38.20;62.49;;
70245;Laerm;57637;49.272;8.590;2023-02-01T10:43:42;41.58;37.23;60.97;;
70245;Laerm;57637;49.272;8.590;2023-02-01T10:46:08;41.79;36.69;50.86;;
70245;Laerm;57637;49.272;8.590;2023-02-01T10:48:34;43.59;38.22;52.64;;
70245;Laerm;57637;49.272;8.590;2023-02-01T10:51:04;45.07;39.34;57.92;;
70245;Laerm;57637;49.272;8.590;2023-02-01T10:56:12;46.67;39.72;58.11;;
70245;Laerm;57637;49.272;8.590;2023-02-01T10:58:46;47.46;39.64;58.87;;
70245;Laerm;57637;49.272;8.590;2023-02-01T11:01:28;47.42;39.18;56.33;;
70245;Laerm;57637;49.272;8.590;2023-02-01T11:03:57;48.49;39.99;59.26;;
70245;Laerm;57637;49.272;8.590;2023-02-01T11:09:32;46.47;38.55;58.32;;
70245;Laerm;57637;49.272;8.590;2023-02-01T11:11:53;41.92;37.70;60.79;;
70245;Laerm;57637;49.272;8.590;2023-02-01T11:17:26;46.42;35.81;61.57;;
70245;Laerm;57637;49.272;8.590;2023-02-01T11:20:01;40.99;36.14;56.64;;
70245;Laerm;57637;49.272;8.590;2023-02-01T11:22:28;39.94;34.95;52.76;;
70245;Laerm;57637;49.272;8.590;2023-02-01T11:24:55;41.48;35.65;57.88;;
70245;Laerm;57637;49.272;8.590;2023-02-01T11:27:23;43.20;37.43;59.99;;
70245;Laerm;57637;49.272;8.590;2023-02-01T11:29:51;42.46;36.34;53.13;;
70245;Laerm;57637;49.272;8.590;2023-02-01T11:32:20;42.96;37.75;54.34;;
70245;Laerm;57637;49.272;8.590;2023-02-01T11:34:52;41.24;36.34;52.60;;
70245;Laerm;57637;49.272;8.590;2023-02-01T11:37:31;44.15;36.02;65.65;;
70245;Laerm;57637;49.272;8.590;2023-02-01T11:40:00;44.11;36.36;57.87;;
70245;Laerm;57637;49.272;8.590;2023-02-01T11:42:27;50.14;35.79;61.08;;
70245;Laerm;57637;49.272;8.590;2023-02-01T11:45:19;42.27;35.99;57.05;;
70245;Laerm;57637;49.272;8.590;2023-02-01T11:47:45;41.39;36.44;59.12;;
70245;Laerm;57637;49.272;8.590;2023-02-01T11:53:32;40.89;34.50;57.34;;
70245;Laerm;57637;49.272;8.590;2023-02-01T11:56:15;42.02;35.57;53.88;;
70245;Laerm;57637;49.272;8.590;2023-02-01T11:58:55;40.02;35.55;55.06;;
70245;Laerm;57637;49.272;8.590;2023-02-01T12:01:49;43.47;35.77;63.04;;
70245;Laerm;57637;49.272;8.590;2023-02-01T12:07:29;42.02;36.05;54.31;;
70245;Laerm;57637;49.272;8.590;2023-02-01T12:12:58;42.93;38.19;56.48;;
70245;Laerm;57637;49.272;8.590;2023-02-01T12:21:09;44.78;35.59;65.25;;
70245;Laerm;57637;49.272;8.590;2023-02-01T12:24:15;40.10;34.83;59.69;;
70245;Laerm;57637;49.272;8.590;2023-02-01T12:26:51;41.08;34.65;52.09;;
70245;Laerm;57637;49.272;8.590;2023-02-01T12:43:39;41.02;36.63;59.20;;
70245;Laerm;57637;49.272;8.590;2023-02-01T12:46:14;42.58;34.91;71.07;;
70245;Laerm;57637;49.272;8.590;2023-02-01T12:48:57;40.31;34.61;57.35;;
70245;Laerm;57637;49.272;8.590;2023-02-01T12:51:34;42.40;35.55;53.80;;
70245;Laerm;57637;49.272;8.590;2023-02-01T12:54:17;43.17;36.00;58.55;;
70245;Laerm;57637;49.272;8.590;2023-02-01T12:56:57;45.56;35.82;61.38;;
70245;Laerm;57637;49.272;8.590;2023-02-01T12:59:31;46.35;35.66;60.32;;
70245;Laerm;57637;49.272;8.590;2023-02-01T13:02:20;50.76;39.27;61.71;;
70245;Laerm;57637;49.272;8.590;2023-02-01T13:05:11;49.62;37.88;65.20;;
70245;Laerm;57637;49.272;8.590;2023-02-01T13:07:57;43.52;35.65;56.87;;
70245;Laerm;57637;49.272;8.590;2023-02-01T13:10:32;44.49;35.14;72.09;;
70245;Laerm;57637;49.272;8.590;2023-02-01T13:13:19;47.20;36.63;64.18;;
70245;Laerm;57637;49.272;8.590;2023-02-01T13:18:34;56.89;35.76;74.70;;
70245;Laerm;57637;49.272;8.590;2023-02-01T13:21:08;47.26;35.66;65.80;;
70245;Laerm;57637;49.272;8.590;2023-02-01T13:23:40;41.67;35.53;65.80;;
70245;Laerm;57637;49.272;8.590;2023-02-01T13:26:06;41.34;36.05;55.69;;
70245;Laerm;57637;49.272;8.590;2023-02-01T13:28:49;40.68;35.25;57.99;;
70245;Laerm;57637;49.272;8.590;2023-02-01T13:42:28;40.61;35.20;62.47;;
70245;Laerm;57637;49.272;8.590;2023-02-01T13:45:04;40.01;35.27;56.36;;
70245;Laerm;57637;49.272;8.590;2023-02-01T13:47:38;40.70;35.70;57.69;;
70245;Laerm;57637;49.272;8.590;2023-02-01T13:52:43;47.04;35.45;63.08;;
70245;Laerm;57637;49.272;8.590;2023-02-01T13:55:14;40.12;35.51;57.94;;
70245;Laerm;57637;49.272;8.590;2023-02-01T13:57:42;41.57;37.10;53.90;;
70245;Laerm;57637;49.272;8.590;2023-02-01T14:00:29;40.79;35.14;52.76;;
70245;Laerm;57637;49.272;8.590;2023-02-01T14:10:54;42.87;36.89;59.37;;
70245;Laerm;57637;49.272;8.590;2023-02-01T14:13:40;42.74;37.65;55.37;;
70245;Laerm;57637;49.272;8.590;2023-02-01T14:23:45;40.04;35.65;50.04;;
70245;Laerm;57637;49.272;8.590;2023-02-01T14:26:17;41.04;36.21;62.44;;
70245;Laerm;57637;49.272;8.590;2023-02-01T14:29:15;47.93;35.44;74.82;;
70245;Laerm;57637;49.272;8.590;2023-02-01T14:34:50;42.20;37.10;53.60;;
70245;Laerm;57637;49.272;8.590;2023-02-01T14:44:47;42.86;37.62;56.79;;
70245;Laerm;57637;49.272;8.590;2023-02-01T14:52:38;43.21;36.61;71.34;;
70245;Laerm;57637;49.272;8.590;2023-02-01T14:55:18;43.19;36.36;68.56;;
70245;Laerm;57637;49.272;8.590;2023-02-01T14:57:46;42.75;37.41;63.65;;
70245;Laerm;57637;49.272;8.590;2023-02-01T15:00:26;43.62;35.89;59.99;;
70245;Laerm;57637;49.272;8.590;2023-02-01T15:02:54;42.49;35.91;60.24;;
70245;Laerm;57637;49.272;8.590;2023-02-01T15:05:29;40.92;35.33;61.68;;
70245;Laerm;57637;49.272;8.590;2023-02-01T15:07:58;41.68;35.69;61.40;;
70245;Laerm;57637;49.272;8.590;2023-02-01T15:10:26;42.74;36.73;60.06;;
70245;Laerm;57637;49.272;8.590;2023-02-01T15:12:52;42.42;37.26;61.76;;
70245;Laerm;57637;49.272;8.590;2023-02-01T15:15:21;43.75;37.41;63.33;;
70245;Laerm;57637;49.272;8.590;2023-02-01T15:17:58;42.29;36.67;55.76;;
70245;Laerm;57637;49.272;8.590;2023-02-01T15:20:30;42.73;36.35;54.21;;
70245;Laerm;57637;49.272;8.590;2023-02-01T15:23:04;41.89;37.39;50.54;;
70245;Laerm;57637;49.272;8.590;2023-02-01T15:25:32;40.55;36.99;48.44;;
70245;Laerm;57637;49.272;8.590;2023-02-01T15:27:59;41.56;36.95;47.78;;
70245;Laerm;57637;49.272;8.590;2023-02-01T15:30:28;40.70;36.35;53.29;;
70245;Laerm;57637;49.272;8.590;2023-02-01T15:35:44;40.69;36.28;49.38;;
70245;Laerm;57637;49.272;8.590;2023-02-01T15:43:23;46.53;36.74;63.45;;
70245;Laerm;57637;49.272;8.590;2023-02-01T15:45:49;41.09;36.97;48.20;;
70245;Laerm;57637;49.272;8.590;2023-02-01T15:48:22;41.62;36.67;60.07;;
70245;Laerm;57637;49.272;8.590;2023-02-01T15:50:50;42.92;36.60;57.59;;
70245;Laerm;57637;49.272;8.590;2023-02-01T15:53:19;40.32;36.36;54.97;;
70245;Laerm;57637;49.272;8.590;2023-02-01T15:55:47;40.67;36.56;50.02;;
70245;Laerm;57637;49.272;8.590;2023-02-01T15:58:19;41.08;36.30;57.60;;
70245;Laerm;57637;49.272;8.590;2023-02-01T16:00:49;38.80;34.29;46.97;;
70245;Laerm;57637;49.272;8.590;2023-02-01T16:06:04;48.13;36.72;70.12;;
70245;Laerm;57637;49.272;8.590;2023-02-01T16:08:31;43.44;36.53;67.98;;
70245;Laerm;57637;49.272;8.590;2023-02-01T16:11:19;45.01;36.53;66.08;;
70245;Laerm;57637;49.272;8.590;2023-02-01T16:13:46;42.80;36.29;59.79;;
70245;Laerm;57637;49.272;8.590;2023-02-01T16:16:11;42.40;36.31;61.00;;
70245;Laerm;57637;49.272;8.590;2023-02-01T16:18:42;51.64;35.55;78.05;;
70245;Laerm;57637;49.272;8.590;2023-02-01T16:21:08;42.68;35.34;57.85;;
70245;Laerm;57637;49.272;8.590;2023-02-01T16:23:35;41.65;36.55;58.25;;
70245;Laerm;57637;49.272;8.590;2023-02-01T16:26:01;41.99;36.45;60.15;;
70245;Laerm;57637;49.272;8.590;2023-02-01T16:28:26;41.72;36.79;55.48;;
70245;Laerm;57637;49.272;8.590;2023-02-01T16:30:52;42.11;38.04;55.12;;